aviador You're here:

KFRM Decoded Metar

FAIRMONT MUNI in MN, USA
Report Time2017-07-24 13:56:00
UTC Time2017-07-24 14:49:11
Flight Rules vfr VFR
Wind110° at 05 kt
W.Decomp.*RWY 13: 4.6 kt HW 2 kt LCW
RWY 02: 0.3 kt HW 5.0 kt RCW
W.Rank110° ranks 27
Current wind is below 110° avg. (7.3)
Visibility9999 m
Phenomena:N/A
Clouds:N/A
Expected CloudBase > 800 ft AGL from Temp-Dew spread
CeilingNone
Temp18°C (ISA +5)
Dew Point16°C (88% RH)
QNH1018 hPa
Density Alt1,860 ft
Elevation1,161 ft
Report Wrong Elevation
Raw Report
KFRM 241356Z AUTO 11005KT 10SM CLR 18/16 A3007 RMK AO2 SLP184
T01830156=

Extra information for KFRM:More info

Metar Taf Metar & Taf Last 4 Metars F.Rules Stats Wind Profile Meteogram Temp Stats Airport Information Weather charts Add Link Nearby VenuesMetar ALERT Operation Metar Decoded Social comments

AIRNAV info for KFRM